createdAt,value
2018-05-11T00:01:43.435Z,24.70
2018-05-11T00:04:09.894Z,24.70
2018-05-11T00:06:36.267Z,24.70
2018-05-11T00:09:02.772Z,24.70
2018-05-11T00:11:29.215Z,24.70
2018-05-11T00:13:56.392Z,24.70
2018-05-11T00:16:22.780Z,24.60
2018-05-11T00:18:49.180Z,24.60
2018-05-11T00:21:15.611Z,24.60
2018-05-11T00:23:41.985Z,24.70
2018-05-11T00:26:09.130Z,24.60
2018-05-11T00:28:35.526Z,24.60
2018-05-11T00:31:01.955Z,24.60
2018-05-11T00:33:28.379Z,24.60
2018-05-11T00:35:54.795Z,24.60
2018-05-11T00:38:21.320Z,24.60
2018-05-11T00:40:47.734Z,24.70
2018-05-11T00:43:14.903Z,24.70
2018-05-11T00:45:41.316Z,24.70
2018-05-11T00:48:08.427Z,24.70
2018-05-11T00:50:34.855Z,24.60
2018-05-11T00:53:01.331Z,24.70
2018-05-11T00:55:40.611Z,24.60
2018-05-11T00:58:07.016Z,24.60
2018-05-11T01:00:33.487Z,24.60
2018-05-11T01:02:59.857Z,24.50
2018-05-11T01:05:26.973Z,24.60
2018-05-11T01:07:53.370Z,24.60
2018-05-11T01:10:19.796Z,24.60
2018-05-11T01:12:46.251Z,24.70
2018-05-11T01:15:12.620Z,24.60
2018-05-11T01:17:39.001Z,24.60
2018-05-11T01:20:05.403Z,24.60
2018-05-11T01:22:32.600Z,24.70
2018-05-11T01:24:59.046Z,24.60
2018-05-11T01:27:25.486Z,24.70
2018-05-11T01:29:51.936Z,24.70
2018-05-11T01:32:18.357Z,24.70
2018-05-11T01:34:44.784Z,24.70
2018-05-11T01:37:11.178Z,24.70
2018-05-11T01:39:38.462Z,24.70
2018-05-11T01:42:04.834Z,24.70
2018-05-11T01:44:32.052Z,24.70
2018-05-11T01:46:58.460Z,24.60
2018-05-11T01:49:24.868Z,24.70
2018-05-11T01:51:51.260Z,24.70
2018-05-11T01:54:17.677Z,24.70
2018-05-11T01:56:44.185Z,24.70
2018-05-11T01:59:10.564Z,24.60
2018-05-11T02:01:36.965Z,24.60
2018-05-11T02:04:03.373Z,24.70
2018-05-11T02:06:29.771Z,24.70
2018-05-11T02:08:56.895Z,24.70
2018-05-11T02:11:23.301Z,24.70
2018-05-11T02:13:49.697Z,24.70
2018-05-11T02:16:16.881Z,24.70
2018-05-11T02:18:43.322Z,24.70
2018-05-11T02:21:09.706Z,24.70
2018-05-11T02:23:36.815Z,24.70
2018-05-11T02:26:03.315Z,24.70
2018-05-11T02:28:29.683Z,24.70
2018-05-11T02:30:56.047Z,24.70
2018-05-11T02:33:23.220Z,24.60
2018-05-11T02:35:49.657Z,24.60
2018-05-11T02:38:16.076Z,24.60
2018-05-11T02:40:43.223Z,24.70
2018-05-11T02:43:09.633Z,24.60
2018-05-11T02:45:35.994Z,24.70
2018-05-11T02:48:02.359Z,24.70
2018-05-11T02:50:28.729Z,24.70
2018-05-11T02:52:55.896Z,24.70
2018-05-11T02:55:23.053Z,24.70
2018-05-11T02:57:49.472Z,24.60
2018-05-11T03:00:16.600Z,24.60
2018-05-11T03:02:43.067Z,24.70
2018-05-11T03:05:10.178Z,24.70
2018-05-11T03:07:36.536Z,24.70
2018-05-11T03:10:03.803Z,24.70
2018-05-11T03:12:30.211Z,24.70
2018-05-11T03:14:57.439Z,24.70
2018-05-11T03:17:23.868Z,24.70
2018-05-11T03:19:50.295Z,24.70
2018-05-11T03:22:16.680Z,24.70
2018-05-11T03:24:43.078Z,24.70
2018-05-11T03:27:09.492Z,24.70
2018-05-11T03:29:35.913Z,24.70
2018-05-11T03:32:03.580Z,24.70
2018-05-11T03:34:30.084Z,24.70
2018-05-11T03:36:56.510Z,24.70
2018-05-11T03:39:22.940Z,24.70
2018-05-11T03:41:49.336Z,24.70
2018-05-11T03:44:15.739Z,24.70
2018-05-11T03:46:42.194Z,24.70
2018-05-11T03:49:08.683Z,24.70
2018-05-11T03:51:35.068Z,24.70
2018-05-11T03:54:01.532Z,24.70
2018-05-11T03:56:28.685Z,24.70
2018-05-11T03:58:55.633Z,24.70
2018-05-11T04:01:34.451Z,24.60
2018-05-11T04:04:13.788Z,24.60
2018-05-11T04:06:52.412Z,24.60
2018-05-11T04:09:18.793Z,24.60
2018-05-11T04:11:45.233Z,24.60
2018-05-11T04:14:11.702Z,24.60
2018-05-11T04:16:38.823Z,24.60
2018-05-11T04:19:06.148Z,24.70
2018-05-11T04:21:32.551Z,24.70
2018-05-11T04:23:58.941Z,24.70
2018-05-11T04:26:25.366Z,24.80
2018-05-11T04:28:51.771Z,24.70
2018-05-11T04:31:18.169Z,24.70
2018-05-11T04:33:44.603Z,24.70
2018-05-11T04:36:10.990Z,24.70
2018-05-11T04:38:37.393Z,24.70
2018-05-11T04:41:03.793Z,24.60
2018-05-11T04:43:30.180Z,24.60
2018-05-11T04:45:56.572Z,24.60
2018-05-11T04:48:23.064Z,24.70
2018-05-11T04:50:50.229Z,24.60
2018-05-11T04:53:17.357Z,24.60
2018-05-11T04:55:44.514Z,24.60
2018-05-11T04:58:11.703Z,24.60
2018-05-11T05:00:38.106Z,24.60
2018-05-11T05:03:05.312Z,24.70
2018-05-11T05:05:31.714Z,24.70
2018-05-11T05:07:58.127Z,24.70
2018-05-11T05:10:25.322Z,24.60
2018-05-11T05:12:52.366Z,24.60
2018-05-11T05:15:18.798Z,24.50
2018-05-11T05:17:45.252Z,24.50
2018-05-11T05:20:11.789Z,24.50
2018-05-11T05:22:38.310Z,24.50
2018-05-11T05:25:04.679Z,24.30
2018-05-11T05:27:31.179Z,24.40
2018-05-11T05:29:57.640Z,24.40
2018-05-11T05:32:24.036Z,24.40
2018-05-11T05:34:50.483Z,24.40
2018-05-11T05:37:16.852Z,24.40
2018-05-11T05:39:43.977Z,24.40
2018-05-11T05:42:10.371Z,24.40
2018-05-11T05:44:36.766Z,24.50
2018-05-11T05:47:03.908Z,24.60
2018-05-11T05:49:31.105Z,24.60
2018-05-11T05:51:57.603Z,24.60
2018-05-11T05:54:24.140Z,24.40
2018-05-11T05:56:50.481Z,24.30
2018-05-11T05:59:16.904Z,24.40
2018-05-11T06:01:44.068Z,24.40
2018-05-11T06:04:10.483Z,24.40
2018-05-11T06:06:36.937Z,24.30
2018-05-11T06:09:03.413Z,24.20
2018-05-11T06:11:30.344Z,24.20
2018-05-11T06:13:56.682Z,24.20
2018-05-11T06:16:23.038Z,24.10
2018-05-11T06:18:49.446Z,24.00
2018-05-11T06:21:15.979Z,24.10
2018-05-11T06:23:42.361Z,24.20
2018-05-11T06:26:08.782Z,24.20
2018-05-11T06:28:35.950Z,24.10
2018-05-11T06:31:02.489Z,24.10
2018-05-11T06:33:29.143Z,24.10
2018-05-11T06:35:55.618Z,24.10
2018-05-11T06:38:22.036Z,24.10
2018-05-11T06:40:55.488Z,24.10
2018-05-11T06:43:21.991Z,23.90
2018-05-11T06:45:49.291Z,23.90
2018-05-11T06:48:15.773Z,23.80
2018-05-11T06:50:42.226Z,23.80
2018-05-11T06:53:08.615Z,23.70
2018-05-11T06:55:35.103Z,23.90
2018-05-11T06:58:01.517Z,24.00
2018-05-11T07:00:28.625Z,24.00
2018-05-11T07:02:54.996Z,24.00
2018-05-11T07:05:22.163Z,24.00
2018-05-11T07:07:48.695Z,24.00
2018-05-11T07:10:14.997Z,23.80
2018-05-11T07:12:41.363Z,23.50
2018-05-11T07:15:07.819Z,23.70
2018-05-11T07:17:34.224Z,23.50
2018-05-11T07:20:00.630Z,23.10
2018-05-11T07:22:27.785Z,22.80
2018-05-11T07:24:54.895Z,23.20
2018-05-11T07:27:21.575Z,22.40
2018-05-11T07:29:49.009Z,22.80
2018-05-11T07:32:15.425Z,22.80
2018-05-11T07:34:41.876Z,23.20
2018-05-11T07:37:08.410Z,23.10
2018-05-11T07:42:08.630Z,23.30
2018-05-11T07:44:35.013Z,23.30
2018-05-11T07:47:01.408Z,23.40
2018-05-11T07:49:27.871Z,23.50
2018-05-11T07:51:55.018Z,23.40
2018-05-11T07:54:22.309Z,23.60
2018-05-11T07:56:48.692Z,23.60
2018-05-11T07:59:15.992Z,23.70
2018-05-11T08:01:42.397Z,23.70
2018-05-11T08:04:08.784Z,23.80
2018-05-11T08:06:35.158Z,23.80
2018-05-11T08:09:02.315Z,24.10
2018-05-11T08:11:28.792Z,24.10
2018-05-11T08:13:55.285Z,23.40
2018-05-11T08:16:21.732Z,23.60
2018-05-11T08:18:48.290Z,23.80
2018-05-11T08:21:14.736Z,24.00
2018-05-11T08:23:41.174Z,23.60
2018-05-11T08:26:07.827Z,23.80
2018-05-11T08:28:34.367Z,23.80
2018-05-11T08:31:01.569Z,23.40
2018-05-11T08:33:28.050Z,23.40
2018-05-11T08:35:55.297Z,23.10
2018-05-11T08:38:21.755Z,23.10
2018-05-11T08:40:48.189Z,23.50
2018-05-11T08:43:14.576Z,23.60
2018-05-11T08:45:41.185Z,23.60
2018-05-11T08:48:07.672Z,23.60
2018-05-11T08:50:34.844Z,23.90
2018-05-11T08:53:01.252Z,23.90
2018-05-11T08:55:28.555Z,23.70
2018-05-11T08:57:54.936Z,23.80
2018-05-11T09:00:22.115Z,23.90
2018-05-11T09:02:48.500Z,23.90
2018-05-11T09:05:14.940Z,24.10
2018-05-11T09:07:41.407Z,23.90
2018-05-11T09:10:07.869Z,24.00
2018-05-11T09:12:34.274Z,24.10
2018-05-11T09:15:00.699Z,24.20
2018-05-11T09:17:28.065Z,24.20
2018-05-11T09:19:55.042Z,24.20
2018-05-11T09:22:21.599Z,24.30
2018-05-11T09:24:53.212Z,24.30
2018-05-11T09:27:19.669Z,24.20
2018-05-11T09:29:46.063Z,24.10
2018-05-11T09:32:12.479Z,24.10
2018-05-11T09:34:39.639Z,24.00
2018-05-11T09:37:06.066Z,23.80
2018-05-11T09:39:33.222Z,23.90
2018-05-11T09:41:59.718Z,23.80
2018-05-11T09:44:26.096Z,24.00
2018-05-11T09:46:52.499Z,24.20
2018-05-11T09:49:19.678Z,24.40
2018-05-11T09:51:46.087Z,24.40
2018-05-11T09:54:13.266Z,24.40
2018-05-11T09:56:39.693Z,24.40
2018-05-11T09:59:06.074Z,24.50
2018-05-11T10:01:32.572Z,24.50
2018-05-11T10:03:58.980Z,24.40
2018-05-11T10:06:26.120Z,24.60
2018-05-11T10:08:53.288Z,24.60
2018-05-11T10:11:19.694Z,24.60
2018-05-11T10:13:46.857Z,24.60
2018-05-11T10:16:13.272Z,24.60
2018-05-11T10:18:39.707Z,24.60
2018-05-11T10:21:06.854Z,24.70
2018-05-11T10:23:33.314Z,24.70
2018-05-11T10:25:59.688Z,24.70
2018-05-11T10:28:26.088Z,24.60
2018-05-11T10:30:52.552Z,24.60
2018-05-11T10:33:18.950Z,24.60
2018-05-11T10:35:46.247Z,24.60
2018-05-11T10:38:12.708Z,24.60
2018-05-11T10:40:39.914Z,24.70
2018-05-11T10:43:06.357Z,24.60
2018-05-11T10:45:32.762Z,24.60
2018-05-11T10:47:59.156Z,24.60
2018-05-11T10:50:26.266Z,24.60
2018-05-11T10:52:52.675Z,24.60
2018-05-11T10:55:19.066Z,24.60
2018-05-11T10:57:46.221Z,24.60
2018-05-11T11:00:13.312Z,24.60
2018-05-11T11:02:39.656Z,24.60
2018-05-11T11:05:06.067Z,24.60
2018-05-11T11:07:32.440Z,24.60
2018-05-11T11:09:58.812Z,24.60
2018-05-11T11:12:25.275Z,24.60
2018-05-11T11:14:51.692Z,24.60
2018-05-11T11:17:18.095Z,24.60
2018-05-11T11:19:45.259Z,24.60
2018-05-11T11:22:11.695Z,24.50
2018-05-11T11:24:38.138Z,24.60
2018-05-11T11:27:04.529Z,24.60
2018-05-11T11:29:30.874Z,24.50
2018-05-11T11:31:58.038Z,24.50
2018-05-11T11:34:24.402Z,24.50
2018-05-11T11:36:50.778Z,24.50
2018-05-11T11:39:17.952Z,24.50
2018-05-11T11:41:44.401Z,24.50
2018-05-11T11:44:10.737Z,24.50
2018-05-11T11:46:37.113Z,24.50
2018-05-11T11:49:03.493Z,24.50
2018-05-11T11:51:29.892Z,24.50
2018-05-11T11:53:57.214Z,24.50
2018-05-11T11:56:23.590Z,24.50
2018-05-11T11:58:50.050Z,24.50
2018-05-11T12:01:16.467Z,24.50
2018-05-11T12:03:43.511Z,24.60
2018-05-11T12:06:09.939Z,24.60
2018-05-11T12:08:36.444Z,24.60
2018-05-11T12:11:02.842Z,24.60
2018-05-11T12:13:29.229Z,24.60
2018-05-11T12:15:55.653Z,24.70
2018-05-11T12:18:22.778Z,24.60
2018-05-11T12:20:49.160Z,24.70
2018-05-11T12:23:15.636Z,24.70
2018-05-11T12:25:42.044Z,24.70
2018-05-11T12:28:08.425Z,24.70
2018-05-11T12:30:35.524Z,24.70
2018-05-11T12:33:01.895Z,24.70
2018-05-11T12:35:28.251Z,24.70
2018-05-11T12:37:55.382Z,24.70
2018-05-11T12:40:21.839Z,24.70
2018-05-11T12:42:48.222Z,24.70
2018-05-11T12:45:14.591Z,24.70
2018-05-11T12:47:42.006Z,24.70
2018-05-11T12:50:08.380Z,24.70
2018-05-11T12:52:35.494Z,24.70
2018-05-11T12:55:01.938Z,24.70
2018-05-11T12:57:29.074Z,24.70
2018-05-11T12:59:56.240Z,24.70
2018-05-11T13:02:22.657Z,24.70
2018-05-11T13:04:49.020Z,24.70
2018-05-11T13:07:15.438Z,24.70
2018-05-11T13:09:42.618Z,24.70
2018-05-11T13:12:09.011Z,24.70
2018-05-11T13:14:35.506Z,24.70
2018-05-11T13:17:01.918Z,24.40
2018-05-11T13:19:28.312Z,24.70
2018-05-11T13:21:54.684Z,24.70
2018-05-11T13:24:21.363Z,24.70
2018-05-11T13:26:47.878Z,24.70
2018-05-11T13:29:14.282Z,24.70
2018-05-11T13:31:40.772Z,24.70
2018-05-11T13:34:08.029Z,24.70
2018-05-11T13:36:35.021Z,24.70
2018-05-11T13:39:01.513Z,24.70
2018-05-11T13:41:28.063Z,24.70
2018-05-11T13:43:55.201Z,24.70
2018-05-11T13:46:21.702Z,24.70
2018-05-11T13:48:48.107Z,24.70
2018-05-11T13:51:14.612Z,24.70
2018-05-11T13:53:41.764Z,24.70
2018-05-11T13:56:08.946Z,24.70
2018-05-11T13:58:35.383Z,24.70
2018-05-11T14:01:02.570Z,24.70
2018-05-11T14:03:29.211Z,24.70
2018-05-11T14:05:56.376Z,24.60
2018-05-11T14:08:23.714Z,24.70
2018-05-11T14:10:50.193Z,24.60
2018-05-11T14:13:16.551Z,24.80
2018-05-11T14:15:42.945Z,24.70
2018-05-11T14:18:10.119Z,24.80
2018-05-11T14:20:36.517Z,24.80
2018-05-11T14:23:03.714Z,24.80
2018-05-11T14:25:30.121Z,24.80
2018-05-11T14:27:56.514Z,24.80
2018-05-11T14:30:22.917Z,24.80
2018-05-11T14:32:49.297Z,24.80
2018-05-11T14:35:16.439Z,24.80
2018-05-11T14:37:43.661Z,24.80
2018-05-11T14:40:10.068Z,24.80
2018-05-11T14:42:36.478Z,24.80
2018-05-11T14:45:02.951Z,24.80
2018-05-11T14:47:29.314Z,24.80
2018-05-11T14:49:56.568Z,24.80
2018-05-11T14:52:23.980Z,24.80
2018-05-11T14:54:51.247Z,24.80
2018-05-11T14:57:17.650Z,24.80
2018-05-11T14:59:44.091Z,24.80
2018-05-11T15:02:10.532Z,24.70
2018-05-11T15:04:36.868Z,24.80
2018-05-11T15:07:03.326Z,24.80
2018-05-11T15:09:30.516Z,24.80
2018-05-11T15:11:56.919Z,24.80
2018-05-11T15:14:23.426Z,24.80
2018-05-11T15:16:50.412Z,24.80
2018-05-11T15:19:17.583Z,24.80
2018-05-11T15:21:44.206Z,24.80
2018-05-11T15:24:10.596Z,24.80
2018-05-11T15:26:37.015Z,24.80
2018-05-11T15:29:03.478Z,24.80
2018-05-11T15:31:29.993Z,24.80
2018-05-11T15:34:03.234Z,24.80
2018-05-11T15:36:29.672Z,24.80
2018-05-11T15:38:56.153Z,24.80
2018-05-11T15:41:22.599Z,24.80
2018-05-11T15:43:49.738Z,24.80
2018-05-11T15:46:16.091Z,24.80
2018-05-11T15:48:43.312Z,24.90
2018-05-11T15:51:09.698Z,24.90
2018-05-11T15:53:36.056Z,24.80
2018-05-11T15:56:02.532Z,24.80
2018-05-11T15:58:28.944Z,24.80
2018-05-11T16:00:56.416Z,24.90
2018-05-11T16:03:22.830Z,24.80
2018-05-11T16:05:50.062Z,24.80
2018-05-11T16:08:16.457Z,24.70
2018-05-11T16:10:42.876Z,24.80
2018-05-11T16:13:10.005Z,24.70
2018-05-11T16:15:36.504Z,24.70
2018-05-11T16:18:02.930Z,24.60
2018-05-11T16:20:29.484Z,24.70
2018-05-11T16:22:56.596Z,24.60
2018-05-11T16:25:22.969Z,24.70
2018-05-11T16:27:49.486Z,24.60
2018-05-11T16:30:15.988Z,24.60
2018-05-11T16:32:43.134Z,24.70
2018-05-11T16:35:10.356Z,24.70
2018-05-11T16:37:37.118Z,24.70
2018-05-11T16:40:04.295Z,24.70
2018-05-11T16:42:30.720Z,24.70
2018-05-11T16:44:57.082Z,24.70
2018-05-11T16:47:23.449Z,24.70
2018-05-11T16:49:49.842Z,24.70
2018-05-11T16:52:16.267Z,24.70
2018-05-11T16:54:42.683Z,24.30
2018-05-11T16:57:09.172Z,24.70
2018-05-11T16:59:35.646Z,24.70
2018-05-11T17:02:02.097Z,24.70
2018-05-11T17:04:28.582Z,24.70
2018-05-11T17:06:55.011Z,24.70
2018-05-11T17:09:21.526Z,24.70
2018-05-11T17:11:47.981Z,24.70
2018-05-11T17:14:14.418Z,24.70
2018-05-11T17:16:41.595Z,24.70
2018-05-11T17:19:07.991Z,24.70
2018-05-11T17:21:35.178Z,24.70
2018-05-11T17:24:01.605Z,24.70
2018-05-11T17:26:28.847Z,24.70
2018-05-11T17:28:56.238Z,24.70
2018-05-11T17:31:22.651Z,24.60
2018-05-11T17:33:49.791Z,24.60
2018-05-11T17:36:17.076Z,24.70
2018-05-11T17:38:43.542Z,24.70
2018-05-11T17:41:09.970Z,24.60
2018-05-11T17:43:36.383Z,24.70
2018-05-11T17:46:02.857Z,24.70
2018-05-11T17:48:30.176Z,24.70
2018-05-11T17:50:56.625Z,24.70
2018-05-11T17:53:23.080Z,24.60
2018-05-11T17:55:50.232Z,24.70
2018-05-11T17:58:17.531Z,24.70
2018-05-11T18:00:44.013Z,24.70
2018-05-11T18:03:11.235Z,24.70
2018-05-11T18:05:38.379Z,24.70
2018-05-11T18:08:04.745Z,24.70
2018-05-11T18:10:31.926Z,24.70
2018-05-11T18:12:58.395Z,24.70
2018-05-11T18:15:24.850Z,24.70
2018-05-11T18:17:52.095Z,24.70
2018-05-11T18:20:18.484Z,24.70
2018-05-11T18:22:44.911Z,24.70
2018-05-11T18:25:11.263Z,24.70
2018-05-11T18:27:37.793Z,24.70
2018-05-11T18:30:04.295Z,24.70
2018-05-11T18:32:31.506Z,24.70
2018-05-11T18:34:58.667Z,24.70
2018-05-11T18:37:25.113Z,24.70
2018-05-11T18:39:51.585Z,24.80
2018-05-11T18:42:17.999Z,24.80
2018-05-11T18:44:45.160Z,24.70
2018-05-11T18:47:11.617Z,24.70
2018-05-11T18:49:38.012Z,24.70
2018-05-11T18:52:05.247Z,24.60
2018-05-11T18:54:32.937Z,24.60
2018-05-11T18:56:59.207Z,24.60
2018-05-11T18:59:25.888Z,24.70
2018-05-11T19:01:53.246Z,24.60
2018-05-11T19:04:20.504Z,24.60
2018-05-11T19:06:47.046Z,24.60
2018-05-11T19:09:13.577Z,24.60
2018-05-11T19:11:40.270Z,25.10
2018-05-11T19:14:06.760Z,24.80
2018-05-11T19:16:33.142Z,24.80
2018-05-11T19:19:00.176Z,24.80
2018-05-11T19:21:26.621Z,24.80
2018-05-11T19:23:53.066Z,24.80
2018-05-11T19:26:20.450Z,24.80
2018-05-11T19:28:47.054Z,24.80
2018-05-11T19:31:13.512Z,24.80
2018-05-11T19:33:39.960Z,24.70
2018-05-11T19:36:06.533Z,24.70
2018-05-11T19:38:33.102Z,24.80
2018-05-11T19:41:00.340Z,24.80
2018-05-11T19:43:26.989Z,24.70
